createdAt,value
2022-08-17T00:01:51.754Z,19.20
2022-08-17T00:04:41.453Z,19.11
2022-08-17T00:07:28.375Z,19.02
2022-08-17T00:10:15.309Z,18.96
2022-08-17T00:13:07.976Z,18.92
2022-08-17T00:16:01.457Z,18.83
2022-08-17T00:19:02.000Z,18.81
2022-08-17T00:22:33.213Z,18.75
2022-08-17T00:25:12.947Z,18.63
2022-08-17T00:27:59.911Z,18.53
2022-08-17T00:30:52.845Z,18.76
2022-08-17T00:33:42.376Z,18.70
2022-08-17T00:39:10.068Z,18.70
2022-08-17T00:41:59.277Z,18.56
2022-08-17T00:44:46.502Z,18.57
2022-08-17T00:47:33.660Z,18.42
2022-08-17T00:50:20.631Z,18.54
2022-08-17T00:53:12.564Z,18.48
2022-08-17T00:56:02.912Z,18.50
2022-08-17T00:58:52.235Z,18.46
2022-08-17T01:01:39.569Z,18.56
2022-08-17T01:04:36.212Z,18.58
2022-08-17T01:07:24.719Z,18.46
2022-08-17T01:10:58.228Z,18.31
2022-08-17T01:13:25.164Z,18.30
2022-08-17T01:16:31.544Z,18.27
2022-08-17T01:19:22.666Z,18.31
2022-08-17T01:22:12.549Z,18.28
2022-08-17T01:25:02.023Z,18.08
2022-08-17T01:27:51.206Z,18.05
2022-08-17T01:30:57.297Z,18.05
2022-08-17T01:33:46.219Z,18.06
2022-08-17T01:36:35.851Z,17.99
2022-08-17T01:39:28.575Z,18.09
2022-08-17T01:42:25.949Z,17.63
2022-08-17T01:45:17.816Z,17.58
2022-08-17T01:48:04.925Z,17.61
2022-08-17T01:50:52.640Z,17.72
2022-08-17T01:53:42.698Z,17.54
2022-08-17T01:56:30.394Z,17.47
2022-08-17T01:59:19.367Z,17.49
2022-08-17T02:02:07.386Z,17.37
2022-08-17T02:04:54.224Z,17.51
2022-08-17T02:07:56.015Z,17.43
2022-08-17T02:10:48.828Z,17.26
2022-08-17T02:13:35.756Z,17.22
2022-08-17T02:16:22.581Z,17.30
2022-08-17T02:19:12.883Z,17.43
2022-08-17T02:21:59.714Z,17.37
2022-08-17T02:24:59.568Z,17.16
2022-08-17T02:27:48.745Z,17.33
2022-08-17T02:31:00.816Z,17.36
2022-08-17T02:33:41.521Z,17.33
2022-08-17T02:36:12.221Z,17.40
2022-08-17T02:38:41.631Z,17.47
2022-08-17T02:41:09.415Z,17.26
2022-08-17T02:43:38.959Z,17.12
2022-08-17T02:46:08.006Z,17.18
2022-08-17T02:48:34.558Z,17.25
2022-08-17T02:51:01.408Z,17.23
2022-08-17T02:53:35.940Z,17.08
2022-08-17T02:56:02.821Z,16.72
2022-08-17T02:58:35.522Z,16.82
2022-08-17T03:01:05.157Z,17.00
2022-08-17T03:03:31.985Z,16.97
2022-08-17T03:06:01.267Z,17.03
2022-08-17T03:08:30.421Z,17.05
2022-08-17T03:10:57.188Z,16.80
2022-08-17T03:13:27.150Z,16.80
2022-08-17T03:15:53.965Z,16.82
2022-08-17T03:18:24.628Z,16.73
2022-08-17T03:20:54.113Z,16.70
2022-08-17T03:23:24.139Z,16.83
2022-08-17T03:25:52.906Z,16.68
2022-08-17T03:28:19.717Z,16.34
2022-08-17T03:30:46.372Z,16.60
2022-08-17T03:33:13.078Z,16.60
2022-08-17T03:35:42.015Z,16.58
2022-08-17T03:38:15.302Z,16.57
2022-08-17T03:40:56.705Z,16.56
2022-08-17T03:43:32.694Z,16.54
2022-08-17T03:46:34.253Z,16.54
2022-08-17T03:49:25.673Z,16.47
2022-08-17T03:52:12.491Z,16.52
2022-08-17T03:54:58.386Z,16.37
2022-08-17T03:57:27.315Z,16.31
2022-08-17T03:59:55.224Z,16.42
2022-08-17T04:02:25.607Z,16.51
2022-08-17T04:04:52.717Z,16.58
2022-08-17T04:07:24.955Z,16.60
2022-08-17T04:09:51.729Z,16.68
2022-08-17T04:12:21.130Z,16.66
2022-08-17T04:14:53.000Z,16.49
2022-08-17T04:17:27.208Z,16.56
2022-08-17T04:19:59.357Z,16.60
2022-08-17T04:22:30.333Z,16.68
2022-08-17T04:25:02.470Z,16.77
2022-08-17T04:27:28.986Z,16.74
2022-08-17T04:29:56.194Z,16.86
2022-08-17T04:33:03.605Z,16.80
2022-08-17T04:35:11.667Z,16.80
2022-08-17T04:37:38.172Z,16.68
2022-08-17T04:40:27.437Z,16.81
2022-08-17T04:43:08.916Z,16.97
2022-08-17T04:45:55.701Z,16.95
2022-08-17T04:48:28.087Z,17.14
2022-08-17T04:51:04.087Z,17.34
2022-08-17T04:53:30.640Z,17.25
2022-08-17T04:55:58.947Z,17.36
2022-08-17T04:58:25.845Z,17.61
2022-08-17T05:00:52.563Z,17.42
2022-08-17T05:03:21.493Z,17.51
2022-08-17T05:05:53.657Z,17.69
2022-08-17T05:08:21.520Z,17.85
2022-08-17T05:10:50.691Z,17.93
2022-08-17T05:13:20.512Z,17.90
2022-08-17T05:15:49.395Z,18.18
2022-08-17T05:18:19.178Z,18.34
2022-08-17T05:20:48.140Z,18.43
2022-08-17T05:23:23.222Z,18.30
2022-08-17T05:25:51.810Z,18.33
2022-08-17T05:28:22.908Z,18.40
2022-08-17T05:30:58.713Z,18.33
2022-08-17T05:33:28.763Z,18.52
2022-08-17T05:36:05.038Z,18.72
2022-08-17T05:38:34.168Z,19.06
2022-08-17T05:41:05.397Z,19.12
2022-08-17T05:43:35.201Z,19.48
2022-08-17T05:46:22.165Z,20.00
2022-08-17T05:48:52.623Z,21.51
2022-08-17T05:51:42.630Z,23.80
2022-08-17T05:54:20.416Z,24.98
2022-08-17T05:56:58.110Z,25.41
2022-08-17T05:59:53.355Z,26.53
2022-08-17T06:02:45.539Z,27.40
2022-08-17T06:05:34.251Z,29.76
2022-08-17T06:08:19.242Z,31.50
2022-08-17T06:11:04.071Z,29.74
2022-08-17T06:13:58.686Z,27.65
2022-08-17T06:16:34.829Z,25.50
2022-08-17T06:19:17.046Z,24.24
2022-08-17T06:21:47.884Z,24.44
2022-08-17T06:24:23.853Z,24.53
2022-08-17T06:26:55.822Z,24.81
2022-08-17T06:29:27.151Z,24.91
2022-08-17T06:31:53.684Z,25.23
2022-08-17T06:34:22.460Z,25.09
2022-08-17T06:37:17.085Z,24.79
2022-08-17T06:39:48.599Z,23.88
2022-08-17T06:42:59.870Z,23.39
2022-08-17T06:45:36.961Z,22.67
2022-08-17T06:48:12.533Z,22.76
2022-08-17T06:50:52.290Z,22.92
2022-08-17T06:53:32.798Z,24.21
2022-08-17T06:56:13.472Z,29.64
2022-08-17T06:58:43.293Z,33.59
2022-08-17T07:01:18.115Z,35.12
2022-08-17T07:03:54.503Z,37.40
2022-08-17T07:06:24.982Z,37.89
2022-08-17T07:09:10.202Z,37.29
2022-08-17T07:14:48.115Z,39.93
2022-08-17T07:17:18.250Z,41.12
2022-08-17T07:19:55.554Z,41.14
2022-08-17T07:22:25.529Z,41.58
2022-08-17T07:24:53.484Z,41.52
2022-08-17T07:27:25.047Z,42.44
2022-08-17T07:29:59.420Z,43.22
2022-08-17T07:32:37.400Z,44.13
2022-08-17T07:35:15.366Z,44.23
2022-08-17T07:37:54.021Z,45.13
2022-08-17T07:40:26.966Z,43.23
2022-08-17T07:43:22.328Z,43.03
2022-08-17T07:46:29.878Z,42.64
2022-08-17T07:49:16.283Z,42.95
2022-08-17T07:51:42.732Z,43.08
2022-08-17T07:54:15.387Z,44.63
2022-08-17T07:56:47.108Z,45.36
2022-08-17T07:59:28.660Z,45.94
2022-08-17T08:02:05.384Z,42.25
2022-08-17T08:05:02.112Z,43.96
2022-08-17T08:07:43.206Z,45.46
2022-08-17T08:10:13.717Z,46.29
2022-08-17T08:12:46.912Z,46.93
2022-08-17T08:15:23.272Z,45.94
2022-08-17T08:17:50.053Z,47.29
2022-08-17T08:20:42.417Z,48.22
2022-08-17T08:23:15.538Z,48.61
2022-08-17T08:25:53.316Z,49.22
2022-08-17T08:28:44.925Z,49.59
2022-08-17T08:31:32.145Z,49.72
2022-08-17T08:34:09.339Z,48.49
2022-08-17T08:37:17.715Z,48.52
2022-08-17T08:40:24.756Z,47.88
2022-08-17T08:43:53.053Z,50.27
2022-08-17T08:47:08.994Z,51.54
2022-08-17T08:50:30.151Z,51.59
2022-08-17T08:53:09.259Z,51.37
2022-08-17T08:55:36.582Z,51.92
2022-08-17T08:58:31.538Z,52.85
2022-08-17T09:00:59.780Z,52.75
2022-08-17T09:04:16.982Z,53.91
2022-08-17T09:06:59.285Z,54.13
2022-08-17T09:09:49.500Z,53.15
2022-08-17T09:12:35.605Z,52.59
2022-08-17T09:15:20.592Z,52.98
2022-08-17T09:18:08.650Z,52.83
2022-08-17T09:20:50.237Z,54.16
2022-08-17T09:23:30.320Z,54.46
2022-08-17T09:26:13.484Z,54.75
2022-08-17T09:28:49.204Z,55.00
2022-08-17T09:31:23.982Z,54.93
2022-08-17T09:33:58.586Z,54.74
2022-08-17T09:36:35.514Z,54.43
2022-08-17T09:39:08.589Z,54.22
2022-08-17T09:41:48.707Z,53.68
2022-08-17T09:44:27.219Z,54.23
2022-08-17T09:47:04.505Z,54.92
2022-08-17T09:49:37.494Z,54.65
2022-08-17T09:52:13.697Z,54.54
2022-08-17T09:54:41.215Z,55.22
2022-08-17T09:57:29.650Z,57.40
2022-08-17T10:00:21.333Z,56.15
2022-08-17T10:02:50.427Z,52.09
2022-08-17T10:05:38.482Z,53.12
2022-08-17T10:08:43.457Z,51.97
2022-08-17T10:11:51.350Z,53.07
2022-08-17T10:14:53.325Z,55.18
2022-08-17T10:17:35.075Z,53.40
2022-08-17T10:20:25.584Z,54.82
2022-08-17T10:23:26.856Z,54.69
2022-08-17T10:26:16.544Z,55.82
2022-08-17T10:28:52.665Z,55.27
2022-08-17T10:31:34.582Z,53.45
2022-08-17T10:34:22.659Z,50.93
2022-08-17T10:37:06.624Z,48.24
2022-08-17T10:39:52.721Z,44.63
2022-08-17T10:42:52.364Z,44.63
2022-08-17T10:45:23.397Z,43.19
2022-08-17T10:48:06.322Z,44.40
2022-08-17T10:50:49.368Z,43.46
2022-08-17T10:53:31.149Z,45.23
2022-08-17T10:56:17.403Z,41.99
2022-08-17T10:59:30.224Z,41.64
2022-08-17T11:02:08.852Z,41.83
2022-08-17T11:05:16.822Z,41.85
2022-08-17T11:08:25.935Z,41.85
2022-08-17T11:11:14.533Z,42.00
2022-08-17T11:14:06.766Z,41.58
2022-08-17T11:16:51.560Z,40.44
2022-08-17T11:19:39.737Z,39.89
2022-08-17T11:22:33.414Z,39.07
2022-08-17T11:25:35.576Z,39.21
2022-08-17T11:28:25.599Z,39.73
2022-08-17T11:30:59.355Z,39.46
2022-08-17T11:33:29.592Z,39.22
2022-08-17T11:36:19.614Z,39.35
2022-08-17T11:39:03.031Z,39.25
2022-08-17T11:41:56.029Z,38.71
2022-08-17T11:44:40.508Z,38.11
2022-08-17T11:47:41.953Z,38.43
2022-08-17T11:50:30.119Z,38.06
2022-08-17T11:52:56.751Z,37.62
2022-08-17T11:55:35.820Z,36.70
2022-08-17T11:58:23.689Z,36.02
2022-08-17T12:00:52.085Z,35.86
2022-08-17T12:03:26.611Z,35.32
2022-08-17T12:06:05.613Z,34.65
2022-08-17T12:08:34.350Z,34.85
2022-08-17T12:11:00.875Z,34.29
2022-08-17T12:13:34.638Z,34.26
2022-08-17T12:16:08.201Z,34.47
2022-08-17T12:18:39.510Z,34.69
2022-08-17T12:21:30.724Z,35.10
2022-08-17T12:24:15.861Z,34.73
2022-08-17T12:26:51.590Z,34.58
2022-08-17T12:29:38.392Z,34.11
2022-08-17T12:32:16.498Z,35.14
2022-08-17T12:34:45.303Z,35.97
2022-08-17T12:37:22.709Z,36.48
2022-08-17T12:39:57.943Z,36.86
2022-08-17T12:42:29.821Z,36.47
2022-08-17T12:44:56.833Z,36.36
2022-08-17T12:47:23.701Z,36.40
2022-08-17T12:49:55.154Z,36.23
2022-08-17T12:52:25.892Z,36.01
2022-08-17T12:55:06.141Z,35.94
2022-08-17T12:57:51.596Z,35.73
2022-08-17T13:00:25.336Z,35.62
2022-08-17T13:03:09.452Z,35.66
2022-08-17T13:06:06.097Z,35.77
2022-08-17T13:08:44.356Z,35.63
2022-08-17T13:11:13.608Z,35.71
2022-08-17T13:13:44.072Z,35.63
2022-08-17T13:16:19.205Z,35.58
2022-08-17T13:18:54.388Z,35.58
2022-08-17T13:21:23.778Z,35.39
2022-08-17T13:24:05.859Z,35.03
2022-08-17T13:26:44.866Z,34.73
2022-08-17T13:29:36.989Z,34.77
2022-08-17T13:32:13.574Z,34.66
2022-08-17T13:35:13.082Z,34.59
2022-08-17T13:38:04.910Z,34.61
2022-08-17T13:40:35.749Z,34.48
2022-08-17T13:43:05.423Z,34.50
2022-08-17T13:45:38.939Z,34.15
2022-08-17T13:48:08.688Z,33.56
2022-08-17T13:50:40.349Z,33.69
2022-08-17T13:53:31.347Z,33.81
2022-08-17T13:56:07.438Z,33.70
2022-08-17T13:58:56.162Z,34.04
2022-08-17T14:01:34.337Z,34.44
2022-08-17T14:04:08.196Z,33.94
2022-08-17T14:07:01.209Z,33.47
2022-08-17T14:09:36.823Z,33.31
2022-08-17T14:12:10.514Z,32.93
2022-08-17T14:14:42.943Z,33.28
2022-08-17T14:17:10.635Z,33.80
2022-08-17T14:19:42.254Z,34.10
2022-08-17T14:22:23.643Z,34.15
2022-08-17T14:24:51.688Z,34.22
2022-08-17T14:27:20.358Z,33.83
2022-08-17T14:29:50.176Z,33.56
2022-08-17T14:32:25.791Z,33.15
2022-08-17T14:34:57.666Z,32.86
2022-08-17T14:37:27.896Z,32.52
2022-08-17T14:39:59.773Z,32.62
2022-08-17T14:42:29.662Z,32.91
2022-08-17T14:44:58.686Z,33.16
2022-08-17T14:47:30.511Z,32.95
2022-08-17T14:49:57.156Z,32.52
2022-08-17T14:52:26.014Z,32.29
2022-08-17T14:54:53.091Z,32.30
2022-08-17T14:57:24.612Z,32.17
2022-08-17T15:00:01.214Z,31.91
2022-08-17T15:02:42.090Z,32.20
2022-08-17T15:05:08.979Z,31.72
2022-08-17T15:07:37.971Z,31.25
2022-08-17T15:10:12.519Z,31.14
2022-08-17T15:12:43.981Z,30.92
2022-08-17T15:15:13.781Z,30.72
2022-08-17T15:17:44.781Z,30.49
2022-08-17T15:20:19.536Z,30.64
2022-08-17T15:22:50.084Z,30.65
2022-08-17T15:25:17.991Z,30.55
2022-08-17T15:27:44.630Z,30.48
2022-08-17T15:30:11.964Z,30.39
2022-08-17T15:32:40.799Z,30.28
2022-08-17T15:35:09.096Z,30.30
2022-08-17T15:37:38.887Z,29.85
2022-08-17T15:40:07.645Z,29.95
2022-08-17T15:42:37.503Z,29.84
2022-08-17T15:45:16.876Z,29.87
2022-08-17T15:47:46.441Z,30.00
2022-08-17T15:50:15.299Z,30.14
2022-08-17T15:52:44.777Z,29.91
2022-08-17T15:55:13.293Z,29.87
2022-08-17T15:57:40.707Z,29.72
2022-08-17T16:00:09.603Z,29.79
2022-08-17T16:03:46.051Z,29.55
2022-08-17T16:05:30.172Z,29.61
2022-08-17T16:07:59.573Z,29.54
2022-08-17T16:10:34.839Z,29.46
2022-08-17T16:13:03.726Z,29.44
2022-08-17T16:15:31.569Z,29.51
2022-08-17T16:18:00.617Z,29.54
2022-08-17T16:20:27.577Z,29.43
2022-08-17T16:22:54.983Z,29.53
2022-08-17T16:25:52.089Z,29.58
2022-08-17T16:28:16.639Z,29.63
2022-08-17T16:30:43.304Z,29.48
2022-08-17T16:33:11.550Z,29.47
2022-08-17T16:35:38.638Z,29.50
2022-08-17T16:38:05.348Z,29.40
2022-08-17T16:40:37.186Z,29.27
2022-08-17T16:43:06.922Z,29.30
2022-08-17T16:45:36.419Z,29.24
2022-08-17T16:48:08.913Z,29.30
2022-08-17T16:50:37.667Z,29.34
2022-08-17T16:53:10.822Z,29.00
2022-08-17T16:55:37.638Z,29.10
2022-08-17T16:58:08.691Z,29.02
2022-08-17T17:00:36.127Z,29.01
2022-08-17T17:03:17.041Z,29.00
2022-08-17T17:06:18.758Z,28.79
2022-08-17T17:08:48.426Z,28.65
2022-08-17T17:11:19.742Z,28.66
2022-08-17T17:14:03.202Z,28.61
2022-08-17T17:16:46.121Z,28.54
2022-08-17T17:19:41.600Z,28.39
2022-08-17T17:22:26.796Z,28.37
2022-08-17T17:25:11.559Z,28.25
2022-08-17T17:27:52.741Z,28.22
2022-08-17T17:30:22.472Z,28.12
2022-08-17T17:33:28.893Z,28.10
2022-08-17T17:36:01.668Z,28.00
2022-08-17T17:38:37.693Z,27.90
2022-08-17T17:41:12.059Z,27.89
2022-08-17T17:43:39.994Z,27.85
2022-08-17T17:46:27.062Z,27.85
2022-08-17T17:48:59.111Z,27.75
2022-08-17T17:52:09.264Z,27.71
2022-08-17T17:54:49.301Z,27.64
2022-08-17T17:57:22.251Z,27.56
2022-08-17T17:59:54.822Z,27.53
2022-08-17T18:02:51.279Z,27.49
2022-08-17T18:05:44.392Z,27.47
2022-08-17T18:08:32.220Z,27.40
2022-08-17T18:11:11.638Z,27.31
2022-08-17T18:13:56.542Z,27.27
2022-08-17T18:16:29.624Z,27.17
2022-08-17T18:19:02.833Z,27.09
2022-08-17T18:21:44.349Z,27.04
2022-08-17T18:24:13.621Z,26.90
2022-08-17T18:26:45.096Z,26.85
2022-08-17T18:29:13.990Z,26.64
2022-08-17T18:31:44.653Z,26.60
2022-08-17T18:34:47.379Z,26.58
2022-08-17T18:37:33.716Z,26.53
2022-08-17T18:40:20.183Z,26.51
2022-08-17T18:42:58.880Z,26.39
2022-08-17T18:45:33.506Z,26.36
2022-08-17T18:48:00.512Z,26.31
2022-08-17T18:50:43.812Z,26.26
2022-08-17T18:53:36.085Z,26.17
2022-08-17T18:56:23.894Z,26.13
2022-08-17T18:58:56.796Z,26.02
2022-08-17T19:01:46.925Z,25.79
2022-08-17T19:04:32.751Z,25.80
2022-08-17T19:07:18.973Z,25.65
2022-08-17T19:09:50.621Z,25.34
2022-08-17T19:12:29.099Z,25.25
2022-08-17T19:14:57.971Z,25.18
2022-08-17T19:17:55.156Z,25.11
2022-08-17T19:20:37.796Z,25.08
2022-08-17T19:23:14.693Z,25.05
2022-08-17T19:25:49.141Z,24.96
2022-08-17T19:28:27.256Z,24.93
2022-08-17T19:31:05.712Z,24.94
2022-08-17T19:33:34.846Z,24.87
2022-08-17T19:36:28.497Z,24.86
2022-08-17T19:39:12.204Z,24.82
2022-08-17T19:41:43.714Z,24.81
2022-08-17T19:44:38.304Z,24.82
2022-08-17T19:47:54.814Z,24.74
2022-08-17T19:50:38.978Z,24.43
2022-08-17T19:53:36.867Z,24.30
2022-08-17T19:56:31.627Z,23.84
2022-08-17T19:59:24.719Z,24.02
2022-08-17T20:02:00.970Z,24.03
2022-08-17T20:04:31.949Z,24.17
2022-08-17T20:07:07.946Z,24.16
2022-08-17T20:09:54.478Z,24.24
2022-08-17T20:12:30.457Z,24.27
2022-08-17T20:15:13.012Z,24.28
2022-08-17T20:17:42.378Z,24.18
2022-08-17T20:20:21.240Z,24.09
2022-08-17T20:22:57.388Z,24.07
2022-08-17T20:25:32.271Z,24.08
2022-08-17T20:28:27.790Z,24.01
2022-08-17T20:30:55.611Z,23.94
2022-08-17T20:33:38.387Z,23.85
2022-08-17T20:36:04.895Z,23.90
2022-08-17T20:38:39.466Z,23.91
2022-08-17T20:41:12.249Z,23.87
2022-08-17T20:43:38.769Z,23.78
2022-08-17T20:46:08.135Z,23.69
2022-08-17T20:48:40.295Z,23.70
2022-08-17T20:51:27.464Z,23.67
2022-08-17T20:53:53.909Z,23.55
2022-08-17T20:56:49.633Z,23.55
2022-08-17T20:59:25.570Z,23.45
2022-08-17T21:02:17.608Z,23.47
2022-08-17T21:05:30.062Z,23.48
2022-08-17T21:08:21.543Z,23.38
2022-08-17T21:12:03.306Z,23.26
2022-08-17T21:14:38.235Z,23.26
2022-08-17T21:17:29.425Z,23.12
2022-08-17T21:21:12.987Z,22.92
2022-08-17T21:24:35.762Z,22.96
2022-08-17T21:27:39.403Z,22.79
2022-08-17T21:30:30.539Z,22.83
2022-08-17T21:33:25.395Z,22.74
2022-08-17T21:36:15.111Z,22.68
2022-08-17T21:39:10.323Z,22.73
2022-08-17T21:41:58.358Z,22.73
2022-08-17T21:44:50.281Z,22.81
2022-08-17T21:47:43.235Z,22.85
2022-08-17T21:50:30.093Z,22.87
2022-08-17T21:53:40.232Z,22.92
2022-08-17T21:56:38.621Z,22.89
2022-08-17T21:59:32.878Z,22.81
2022-08-17T22:02:25.596Z,22.67
2022-08-17T22:05:14.373Z,22.51
2022-08-17T22:08:08.591Z,22.41
2022-08-17T22:11:05.877Z,22.62
2022-08-17T22:13:57.272Z,22.82
2022-08-17T22:17:22.225Z,22.92
2022-08-17T22:20:14.636Z,22.79
2022-08-17T22:23:19.897Z,22.69
2022-08-17T22:26:12.568Z,22.79
2022-08-17T22:29:02.104Z,22.81
2022-08-17T22:31:58.140Z,22.78
2022-08-17T22:34:44.947Z,22.77
2022-08-17T22:37:31.876Z,22.75
2022-08-17T22:40:31.848Z,22.83
2022-08-17T22:43:26.409Z,22.79
2022-08-17T22:46:15.182Z,22.70
2022-08-17T22:49:02.095Z,22.66
2022-08-17T22:51:49.084Z,22.77
2022-08-17T22:54:54.580Z,22.78
2022-08-17T22:58:04.397Z,22.92
2022-08-17T23:00:51.528Z,22.75
2022-08-17T23:03:55.825Z,22.73
2022-08-17T23:06:42.772Z,22.77
2022-08-17T23:09:29.884Z,22.82
2022-08-17T23:12:23.944Z,22.95
2022-08-17T23:15:15.534Z,22.98
2022-08-17T23:18:04.584Z,22.94
2022-08-17T23:20:54.060Z,22.63
2022-08-17T23:23:41.335Z,22.83
2022-08-17T23:26:29.844Z,22.80
2022-08-17T23:29:16.930Z,22.71
2022-08-17T23:32:07.071Z,22.76
2022-08-17T23:34:53.935Z,22.78
2022-08-17T23:37:41.380Z,22.78
2022-08-17T23:40:29.356Z,22.75
2022-08-17T23:43:23.416Z,22.77
2022-08-17T23:46:12.760Z,22.52
2022-08-17T23:49:00.409Z,22.57
2022-08-17T23:51:48.799Z,22.72
2022-08-17T23:54:43.418Z,22.71
2022-08-17T23:57:33.913Z,22.71
